Data for 07/17/2018

Time Sea-Level Adjusted Pressure Absolute Pressure Temperature Relative Humidity Dew Point   
(mb) (inHg) (mb) (inHg) (C) (F) (%) (C) (F)
00:05 1022 30.18 852 25.16 18.4 65.2 55 9.4 48.9
00:10 1022 30.18 852 25.16 18.5 65.4 56 9.8 49.6
00:15 1022 30.18 852 25.16 18.4 65 57 9.9 49.8
00:20 1022 30.18 852 25.16 18.7 65.6 56 9.9 49.7
00:25 1022 30.18 852 25.16 18.2 64.8 58 10 50
00:30 1022 30.18 852 25.16 17.9 64.2 58 9.7 49.4
00:35 1022 30.18 852 25.16 17.9 64.2 57 9.3 48.8
00:40 1022 30.18 852 25.16 18.1 64.7 56 9.3 48.8
00:45 1022 30.18 852 25.16 18.3 64.9 56 9.4 49
00:50 1022 30.18 852 25.16 18.1 64.6 55 9.1 48.4
00:55 1022 30.18 852 25.16 18.2 64.7 54 8.9 48.1
01:00 1022 30.18 852 25.16 18.2 64.8 54 8.9 48.1
01:05 1022 30.18 852 25.16 18.4 65.1 52 8.5 47.4
01:10 1022 30.18 852 25.16 18.8 65.9 52 9 48.1
01:15 1022 30.18 852 25.16 18.4 65.2 53 8.9 48.1
01:20 1022 30.18 852 25.16 18.2 64.8 54 9 48.2
01:25 1022 30.18 852 25.16 18.1 64.5 54 8.6 47.6
01:30 1022 30.18 852 25.16 18 64.4 54 8.7 47.7
01:35 1022 30.18 852 25.16 18 64.3 53 8.5 47.2
01:40 1022 30.18 852 25.16 18.4 65.1 52 8.5 47.3
01:45 1022 30.18 852 25.16 18.6 65.4 52 8.5 47.4
01:50 1022 30.18 851 25.13 18.1 64.6 57 9.5 49.1
01:55 1022 30.18 851 25.13 16.9 62.5 60 9.2 48.6
02:00 1022 30.18 852 25.16 16.5 61.7 60 8.8 47.8
02:05 1022 30.18 852 25.16 16.8 62.2 59 8.9 48.1
02:10 1022 30.18 852 25.16 16.8 62.2 59 8.9 48
02:15 1022 30.18 852 25.16 16.9 62.4 59 9 48.2
02:20 1022 30.18 852 25.16 16.9 62.3 59 8.9 48
02:25 1022 30.18 852 25.16 17.1 62.8 56 8.3 46.9
02:30 1022 30.18 852 25.16 17.2 63 56 8.5 47.4
02:35 1022 30.18 852 25.16 17.1 62.8 57 8.5 47.4
02:40 1022 30.18 852 25.16 16.9 62.5 57 8.4 47
02:45 1022 30.18 852 25.16 16.6 61.8 58 8.4 47.1
02:50 1022 30.18 852 25.16 16.7 62 57 8.3 46.9
02:55 1022 30.18 852 25.16 17 62.5 54 7.7 45.8
03:00 1022 30.18 852 25.16 17.2 63 56 8.4 47.1
03:05 1022 30.18 852 25.16 16.9 62.5 57 8.5 47.4
03:10 1022 30.18 852 25.16 16.5 61.8 58 8.2 46.8
03:15 1022 30.18 852 25.16 16.5 61.7 56 7.9 46.2
03:20 1022 30.18 852 25.16 16.6 61.9 57 8 46.5
03:25 1022 30.18 852 25.16 16.5 61.7 56 7.9 46.3
03:30 1022 30.18 852 25.16 16.4 61.5 55 7.5 45.6
03:35 1022 30.18 852 25.16 16.5 61.6 56 7.8 46.1
03:40 1022 30.18 852 25.16 16 60.7 59 7.9 46.3
03:45 1022 30.18 852 25.16 15.6 60 61 8.1 46.6
03:50 1023 30.21 852 25.16 15.2 59.4 62 8 46.4
03:55 1023 30.21 852 25.16 15 58.9 62 7.7 45.9
04:00 1022 30.18 852 25.16 15 58.9 61 7.7 45.8
04:05 1022 30.18 852 25.16 15 59 63 8 46.4
04:10 1023 30.21 852 25.16 14.8 58.6 59 7 44.7
04:15 1023 30.21 852 25.16 15.5 59.9 57 7.2 45
04:20 1023 30.21 852 25.16 15.6 60.1 57 7.3 45.1
04:25 1023 30.21 852 25.16 15.6 60 57 7.1 44.8
04:30 1022 30.18 852 25.16 15.5 59.8 58 7.4 45.4
04:35 1023 30.21 852 25.16 15.2 59.3 59 7.2 45
04:40 1022 30.18 852 25.16 15.1 59.3 59 7.2 45
04:45 1022 30.18 852 25.16 15 58.9 61 7.6 45.6
04:50 1023 30.21 852 25.16 14.6 58.3 62 7.5 45.5
04:55 1023 30.21 852 25.16 14.7 58.4 61 7.4 45.3
05:00 1023 30.21 852 25.16 15.1 59.2 58 6.9 44.5
05:05 1023 30.21 852 25.16 15.5 59.9 58 7.2 45
05:10 1023 30.21 852 25.16 15.5 59.9 58 7.3 45.1
05:15 1023 30.21 852 25.16 15.3 59.5 58 7.2 45
05:20 1023 30.21 852 25.16 15.2 59.4 59 7.3 45.1
05:25 1023 30.21 852 25.16 15.1 59.2 59 7.3 45.2
05:30 1023 30.21 852 25.16 14.8 58.7 61 7.3 45.2
05:35 1023 30.21 852 25.16 14.6 58.2 62 7.3 45.2
05:40 1023 30.21 852 25.16 14.3 57.8 62 7.3 45.1
05:45 1023 30.21 852 25.16 14.3 57.7 62 7.2 44.9
05:50 1023 30.21 852 25.16 14.3 57.8 62 7.2 44.9
05:55 1023 30.21 852 25.16 14.3 57.7 62 7.1 44.8
06:00 1023 30.21 852 25.16 14.4 57.8 61 7 44.6
06:05 1023 30.21 852 25.16 14.3 57.8 63 7.4 45.3
06:10 1023 30.21 852 25.16 14.2 57.5 63 7.2 44.9
06:15 1023 30.21 852 25.16 14.1 57.4 63 7.2 45
06:20 1023 30.21 852 25.16 14.2 57.5 63 7.2 45
06:25 1023 30.21 852 25.16 14.3 57.8 62 7.2 45
06:30 1023 30.21 852 25.16 14.6 58.3 61 7.1 44.9
06:35 1023 30.21 852 25.16 14.9 58.8 60 7.2 44.9
06:40 1023 30.21 852 25.16 15 59.1 60 7.4 45.3
06:45 1023 30.21 852 25.16 15 59 61 7.6 45.6
06:50 1023 30.21 852 25.16 14.7 58.4 61 7.4 45.3
06:55 1023 30.21 852 25.16 14.7 58.4 61 7.4 45.3
07:00 1023 30.21 852 25.16 14.9 58.9 59 7.1 44.8
07:05 1023 30.21 852 25.16 15.4 59.7 59 7.6 45.6
07:10 1023 30.21 852 25.16 15.7 60.3 58 7.5 45.4
07:15 1023 30.21 852 25.16 16.1 61 56 7.5 45.4
07:20 1023 30.21 852 25.16 16.3 61.4 56 7.5 45.6
07:25 1023 30.21 852 25.16 16.6 61.8 56 7.8 46
07:30 1023 30.21 852 25.16 17 62.6 52 7.1 44.8
07:35 1023 30.21 852 25.16 17.7 63.9 50 7.3 45.1
07:40 1023 30.21 852 25.16 18 64.4 49 7.2 45
07:45 1023 30.21 852 25.16 18.3 64.9 51 8.1 46.6
07:50 1023 30.21 852 25.16 18 64.4 53 8.3 47
07:55 1023 30.21 852 25.16 17.9 64.2 55 8.8 47.8
08:00 1023 30.21 852 25.16 17.7 63.9 55 8.8 47.8
08:05 1023 30.21 852 25.16 17.5 63.5 57 9 48.2
08:10 1023 30.21 852 25.16 17.4 63.4 57 8.8 47.8
08:15 1023 30.21 852 25.16 17.7 63.9 58 9.4 48.9
08:20 1023 30.21 852 25.16 18 64.3 57 9.4 48.9
08:25 1023 30.21 852 25.16 18.2 64.7 55 9 48.3
08:30 1023 30.21 853 25.19 17.9 64.3 56 9.2 48.5
08:35 1023 30.21 852 25.16 17.8 64.1 57 9.4 48.9
08:40 1023 30.21 852 25.16 18.1 64.5 54 8.9 47.9
08:45 1023 30.21 852 25.16 18.4 65.1 54 9.2 48.5
08:50 1023 30.21 853 25.19 18.5 65.2 54 9 48.2
08:55 1023 30.21 853 25.19 18.3 65 56 9.4 49
09:00 1023 30.21 853 25.19 18.6 65.4 52 8.6 47.5
09:05 1024 30.24 853 25.19 18.7 65.7 53 9.1 48.3
09:10 1024 30.24 853 25.19 18.8 65.8 52 9 48.1
09:15 1024 30.24 853 25.19 19.1 66.4 50 8.6 47.5
09:20 1024 30.24 853 25.19 19.4 67 50 8.8 47.8
09:25 1024 30.24 853 25.19 19.8 67.6 47 8.2 46.7
09:30 1024 30.24 853 25.19 20.1 68.1 47 8.6 47.5
09:35 1024 30.24 853 25.19 19.8 67.7 50 9.3 48.7
09:40 1024 30.24 853 25.19 19.5 67.1 51 9.3 48.7
09:45 1024 30.24 853 25.19 19.3 66.7 51 9.1 48.4
09:50 1024 30.24 853 25.19 19.2 66.6 54 9.7 49.4
09:55 1024 30.24 853 25.19 19.2 66.5 55 9.9 49.9
10:00 1024 30.24 853 25.19 19.3 66.8 54 9.9 49.9
10:05 1024 30.24 853 25.19 19.4 67 55 10.2 50.3
10:10 1024 30.24 853 25.19 19.4 67 55 10.1 50.2
10:15 1024 30.24 853 25.19 19.5 67.1 54 10.1 50.1
10:20 1024 30.24 853 25.19 19.5 67.1 51 9.1 48.5
10:25 1024 30.24 853 25.19 19.5 67.1 52 9.6 49.2
10:30 1024 30.24 853 25.19 19.6 67.3 52 9.8 49.6
10:35 1024 30.24 853 25.19 19.9 67.8 51 9.7 49.5
10:40 1024 30.24 854 25.22 20 68.1 51 9.8 49.6
10:45 1024 30.24 854 25.22 20 68 51 9.6 49.3
10:50 1024 30.24 854 25.22 20.2 68.4 50 9.7 49.4
10:55 1024 30.24 854 25.22 20.4 68.7 50 9.6 49.3
11:00 1024 30.24 854 25.22 20.7 69.3 48 9.5 49
11:05 1024 30.24 854 25.22 21.1 70.1 46 9.3 48.8
11:10 1024 30.24 854 25.22 21.2 70.2 47 9.8 49.6
11:15 1024 30.24 854 25.22 21.2 70.2 47 9.5 49.1
11:20 1024 30.24 854 25.22 20.9 69.6 48 9.6 49.3
11:25 1024 30.24 854 25.22 20.9 69.6 47 9.4 48.9
11:30 1024 30.24 854 25.22 20.8 69.4 48 9.6 49.3
11:35 1024 30.24 854 25.22 21.3 70.3 46 9.2 48.6
11:40 1024 30.24 854 25.22 21.7 71 46 9.6 49.3
11:45 1024 30.24 854 25.22 22 71.7 43 9.1 48.3
11:50 1024 30.24 854 25.22 22.5 72.5 41 8.9 48.1
11:55 1024 30.24 853 25.19 23.2 73.8 39 8.8 47.9
12:00 1024 30.24 853 25.19 23.3 73.9 41 9.3 48.8
12:05 1024 30.24 853 25.19 22.9 73.2 41 9 48.2
12:10 1024 30.24 853 25.19 23.3 74 38 8.6 47.5
12:15 1024 30.24 853 25.19 24 75.3 38 8.9 48.1
12:20 1024 30.24 853 25.19 23.8 74.8 40 9.6 49.2
12:25 1024 30.24 853 25.19 23.8 74.9 37 8.4 47.2
12:30 1024 30.24 853 25.19 24.4 75.9 34 7.8 46.1
12:35 1024 30.24 853 25.19 24.5 76.1 36 8.7 47.6
12:40 1024 30.24 853 25.19 24.5 76 35 8.4 47.1
12:45 1024 30.24 853 25.19 23.9 75.1 38 9 48.2
12:50 1024 30.24 853 25.19 23.8 74.8 40 9.4 48.9
12:55 1024 30.24 853 25.19 24 75.1 37 8.5 47.3
13:00 1024 30.24 853 25.19 24.3 75.7 36 8.6 47.6
13:05 1024 30.24 853 25.19 24.6 76.2 36 8.9 47.9
13:10 1024 30.24 853 25.19 23.9 75.1 39 9.3 48.7
13:15 1024 30.24 853 25.19 24.2 75.6 38 9.3 48.7
13:20 1024 30.24 853 25.19 23.9 74.9 39 9.2 48.5
13:25 1024 30.24 853 25.19 24.1 75.3 36 8.3 47
13:30 1024 30.24 853 25.19 24.1 75.4 36 8.2 46.7
13:35 1024 30.24 853 25.19 24 75.2 35 8 46.3
13:40 1024 30.24 853 25.19 24.5 76 33 7.5 45.4
13:45 1024 30.24 853 25.19 24.7 76.5 34 8.2 46.7
13:50 1024 30.24 853 25.19 24.3 75.7 36 8.3 47
13:55 1024 30.24 853 25.19 24.2 75.6 34 7.6 45.7
14:00 1024 30.24 853 25.19 24.9 76.7 33 7.7 45.9
14:05 1024 30.24 853 25.19 25.1 77.1 34 8.5 47.3
14:10 1024 30.24 853 25.19 24.6 76.3 34 8.1 46.7
14:15 1024 30.24 853 25.19 24.6 76.4 36 8.8 47.9
14:20 1023 30.21 853 25.19 24.9 76.7 33 7.9 46.2
14:25 1023 30.21 853 25.19 25.1 77.1 34 8.3 47
14:30 1023 30.21 853 25.19 25.6 78.1 31 7.7 45.8
14:35 1023 30.21 852 25.16 24.6 76.3 33 7.4 45.2
14:40 1023 30.21 852 25.16 24.9 76.7 32 7.3 45.2
14:45 1023 30.21 852 25.16 24.5 76 34 7.8 46
14:50 1023 30.21 852 25.16 24.4 75.9 31 6.4 43.6
14:55 1023 30.21 852 25.16 24.9 76.7 32 7.1 44.7
15:00 1023 30.21 852 25.16 25.2 77.4 32 7.4 45.3
15:05 1023 30.21 852 25.16 25.9 78.6 31 7.7 45.8
15:10 1023 30.21 852 25.16 26.3 79.3 30 7.4 45.3
15:15 1023 30.21 852 25.16 26.3 79.3 31 7.9 46.2
15:20 1023 30.21 852 25.16 26.2 79.1 31 8.1 46.5
15:25 1023 30.21 852 25.16 26.5 79.6 33 9.2 48.6
15:30 1023 30.21 852 25.16 26.2 79.1 33 8.7 47.7
15:35 1023 30.21 852 25.16 25.3 77.6 34 8.5 47.3
15:40 1023 30.21 852 25.16 25.4 77.8 32 7.9 46.1
15:45 1023 30.21 852 25.16 25.8 78.5 30 7.4 45.3
15:50 1023 30.21 852 25.16 26 78.8 30 7.5 45.5
15:55 1023 30.21 852 25.16 26.4 79.6 31 8.1 46.5
16:00 1023 30.21 852 25.16 25.8 78.5 30 7.1 44.8
16:05 1023 30.21 852 25.16 26 78.8 29 6.7 44.1
16:10 1023 30.21 852 25.16 25.9 78.6 28 6.5 43.7
16:15 1023 30.21 852 25.16 26 78.8 28 6.5 43.7
16:20 1023 30.21 852 25.16 26.3 79.4 29 7.2 45
16:25 1023 30.21 852 25.16 26.1 79 30 7.4 45.3
16:30 1023 30.21 852 25.16 26.4 79.4 29 7.2 44.9
16:35 1023 30.21 852 25.16 25.9 78.7 28 6.4 43.6
16:40 1023 30.21 852 25.16 25.6 78.2 30 6.8 44.3
16:45 1023 30.21 852 25.16 25.7 78.3 30 7.3 45.1
16:50 1023 30.21 852 25.16 26.2 79.1 30 7.7 45.8
16:55 1023 30.21 852 25.16 26 78.8 32 8.2 46.7
17:00 1023 30.21 852 25.16 25.2 77.4 33 8.1 46.5
17:05 1023 30.21 852 25.16 25 77 32 7.5 45.6
17:10 1023 30.21 852 25.16 24.8 76.7 33 7.8 46.1
17:15 1023 30.21 852 25.16 24.4 75.9 33 7.5 45.5
17:20 1023 30.21 852 25.16 24.2 75.5 34 7.7 45.9
17:25 1023 30.21 852 25.16 24.2 75.6 33 7.3 45.1
17:30 1023 30.21 852 25.16 24.2 75.6 34 7.7 45.8
17:35 1023 30.21 852 25.16 24.1 75.3 36 8.2 46.8
17:40 1023 30.21 852 25.16 23.7 74.6 35 7.7 45.8
17:45 1023 30.21 852 25.16 23.6 74.6 36 7.7 45.9
17:50 1023 30.21 852 25.16 23.5 74.3 37 8.2 46.7
17:55 1023 30.21 852 25.16 23.6 74.5 37 8.3 47
18:00 1023 30.21 852 25.16 23.8 74.9 35 7.8 46
18:05 1023 30.21 852 25.16 24.6 76.3 33 7.5 45.4
18:10 1023 30.21 852 25.16 24.8 76.7 33 7.6 45.7
18:15 1023 30.21 852 25.16 24.8 76.7 33 7.7 45.9
18:20 1023 30.21 852 25.16 24.9 76.9 32 7.3 45.1
18:25 1023 30.21 852 25.16 24.7 76.4 33 7.6 45.7
18:30 1023 30.21 852 25.16 24.5 76.1 33 7.4 45.4
18:35 1022 30.18 852 25.16 24.6 76.2 33 7.3 45.1
18:40 1022 30.18 852 25.16 24.5 76.2 34 7.8 46
18:45 1022 30.18 852 25.16 24.4 75.9 34 7.6 45.7
18:50 1022 30.18 852 25.16 24.3 75.8 34 7.5 45.6
18:55 1022 30.18 851 25.13 24.4 76 32 6.8 44.2
19:00 1022 30.18 851 25.13 24.2 75.5 32 6.6 43.9
19:05 1022 30.18 852 25.16 24.2 75.5 32 6.4 43.6
19:10 1022 30.18 852 25.16 24.1 75.5 31 6.4 43.4
19:15 1022 30.18 852 25.16 24.1 75.4 31 6.4 43.5
19:20 1022 30.18 852 25.16 24.3 75.7 32 6.5 43.8
19:25 1022 30.18 852 25.16 24 75.3 32 6.6 43.9
19:30 1022 30.18 852 25.16 23.6 74.6 34 7 44.6
19:35 1022 30.18 851 25.13 23.4 74 34 6.6 43.9
19:40 1022 30.18 851 25.13 23.2 73.7 34 6.9 44.3
19:45 1022 30.18 851 25.13 23.1 73.6 35 7 44.6
19:50 1022 30.18 852 25.16 22.9 73.1 34 6.6 43.8
19:55 1022 30.18 852 25.16 22.7 72.8 34 6.2 43.2
20:00 1022 30.18 852 25.16 22.6 72.8 35 6.5 43.6
20:05 1022 30.18 852 25.16 22.8 73.1 34 6.2 43.1
20:10 1022 30.18 852 25.16 22.8 73.1 34 6.5 43.8
20:15 1023 30.21 852 25.16 22.9 73.3 34 6.5 43.7
20:20 1022 30.18 852 25.16 22.9 73.1 35 6.7 44.1
20:25 1022 30.18 852 25.16 22.7 72.8 35 6.6 43.9
20:30 1023 30.21 852 25.16 22.6 72.7 36 6.8 44.2
20:35 1023 30.21 852 25.16 22.4 72.4 36 7 44.6
20:40 1023 30.21 852 25.16 22.3 72.1 36 6.8 44.2
20:45 1023 30.21 852 25.16 22.2 71.9 37 6.9 44.5
20:50 1023 30.21 852 25.16 22 71.7 37 7 44.6
20:55 1023 30.21 852 25.16 21.9 71.5 39 7.4 45.2
21:00 1023 30.21 852 25.16 21.8 71.3 39 7.2 45
21:05 1023 30.21 852 25.16 21.7 71.1 40 7.6 45.6
21:10 1023 30.21 852 25.16 21.5 70.6 41 7.9 46.2
21:15 1023 30.21 852 25.16 21.4 70.4 42 8.1 46.6
21:20 1023 30.21 852 25.16 21.3 70.3 42 8.1 46.7
21:25 1023 30.21 852 25.16 21.2 70.1 43 8.1 46.6
21:30 1023 30.21 852 25.16 20.9 69.7 47 9.2 48.6
21:35 1023 30.21 852 25.16 20.5 68.8 47 8.8 47.9
21:40 1023 30.21 852 25.16 20.4 68.7 49 9.3 48.8
21:45 1023 30.21 852 25.16 20 67.9 53 10.2 50.4
21:50 1023 30.21 852 25.16 19.4 66.9 55 10.2 50.4
21:55 1023 30.21 852 25.16 19.1 66.3 55 9.9 49.8
22:00 1023 30.21 852 25.16 18.9 66 54 9.5 49.2
22:05 1023 30.21 852 25.16 18.7 65.7 54 9.4 48.9
22:10 1023 30.21 852 25.16 18.6 65.4 55 9.6 49.2
22:15 1023 30.21 852 25.16 18.3 65 57 9.9 49.8
22:20 1023 30.21 852 25.16 18 64.4 58 9.7 49.5
22:25 1023 30.21 852 25.16 17.8 64.1 58 9.6 49.2
22:30 1023 30.21 852 25.16 17.7 63.9 58 9.6 49.2
22:35 1023 30.21 852 25.16 17.5 63.4 59 9.5 49.1
22:40 1023 30.21 852 25.16 17.3 63.1 59 9.4 48.9
22:45 1023 30.21 852 25.16 17.1 62.7 60 9.4 48.9
22:50 1023 30.21 852 25.16 16.9 62.3 59 9 48.2
22:55 1023 30.21 852 25.16 16.9 62.3 58 8.5 47.3
23:00 1023 30.21 852 25.16 16.9 62.4 56 8.1 46.7
23:05 1023 30.21 852 25.16 17 62.6 55 8 46.4
23:10 1023 30.21 852 25.16 17 62.5 55 7.8 46.1
23:15 1023 30.21 852 25.16 16.9 62.3 55 7.8 46
23:20 1023 30.21 852 25.16 16.7 62 55 7.8 46
23:25 1023 30.21 852 25.16 16.7 62.1 55 7.6 45.7
23:30 1023 30.21 852 25.16 16.7 62 55 7.7 45.9
23:35 1023 30.21 852 25.16 16.5 61.7 57 8 46.4
23:40 1023 30.21 852 25.16 16.1 60.9 58 7.9 46.1
23:45 1023 30.21 852 25.16 15.8 60.5 59 7.9 46.2
23:50 1023 30.21 852 25.16 15.6 60 60 8 46.4
23:55 1023 30.21 852 25.16 15.2 59.4 61 7.8 46
24:00 1023 30.21 852 25.16 15 59.1 60 7.5 45.5